Rechercher aéroport 
image banner adimage banner adimage banner ad
image banner ad

43CN - Corcoran

Situé à Corcoran, United States

ICAO - 43CN, IATA -

Données fournies par Airmate  

Information générale

Coordonnées: N36°6'10" W119°35'41"
Élévation : 197 feet MSL.
Variation magnétique : 15° East
Voir autres Aéroports à California

Données opérationnelles

Special qualification required
Heure actuelle UTC:
Heure actuelle locale:
Météo à : KHJO - Hanford Muni ( 24 km )
METAR: KHJO 191053Z AUTO 00000KT 10SM CLR 04/03 A3005 RMK AO2 SLP177 T00440033
Voir NOTAMs / SUP AIP / TFR affectant cet aéroport [VIEW]
Fréquences de communication: [VIEW]

Pistes:

Identifiant RWYQFULongueur (ft)Largeur (ft)SurfaceLDA (ft)
13380050ASPH
31380050ASPH

Coordonnées de l'aéroport

Adresse: Corcoran United States

Vue satellite de 43CN